Argos, IN

6:56 PM EDT on April 19, 2015 (GMT -0400)
INDOT | | Change Station
CLOSE
Current Station
Personal Weather Station
Location: Argos, IN
Elevation: 828 ft
Nearby Weather Stations

Elev 828 ft 41.27 °N, 86.27 °W | Updated 26 minutes ago

Rain
Rain
52 °F
Feels Like 52 °F
N
14
Wind Variable Wind from East
Gusts 19.0 mph

Today
High -- | Low -- °F
--% Chance of Precip.
Yesterday
High -- | Low -- °F
Precip. -- in
6:59 AM 8:29 PM
New Moon, 2% visible
Pressure 29.46 in
Visibility 3.0 miles
Clouds Overcast 700 ft
Dew Point 51 °F
Humidity 97%
Rainfall in
Snow Depth Not available.
UV 0 out of 12
Pollen 6.20 out of 12
Air Quality Not available.
Flu Activity Local Activity
METAR KRCR 192235Z AUTO 07009G15KT 3SM RA OVC007 12/12 A2946 RMK AO2 P0005 LTG DSNT W

More Conditions Fewer Conditions

Pressure 29.46 in
Visibility 3.0 miles
Clouds Overcast 700 ft
Dew Point 51 °F
Humidity 97%
Rainfall in
Snow Depth Not available.
UV 0 out of 12
Pollen 6.20 out of 12
Air Quality Not available.
Flu Activity Local Activity
METAR KRCR 192235Z AUTO 07009G15KT 3SM RA OVC007 12/12 A2946 RMK AO2 P0005 LTG DSNT W

More Conditions Fewer Conditions

10-Day Weather Forecast

Almanac

Astronomy

Apr. 19, 2015 Rise Set
Actual Time
Civil Twilight
Nautical Twilight
Astronomical Twilight
Moon
Length of Visible Light
Length of Day
Tomorrow will be .
, % of the Moon is Illuminated

Today's Extremes

State Highs State Lows

Community

WunderPhotos

Upload Photos

1,815,009 photos uploaded!

WunderBlogs® & News

Nearby

Air Quality

  Air Quality AQ Index Pollutant
Not available.

Snow Depth

Station Depth Elevation

Earthquake Activity

City Distance Mag. Time & Date
Minimum magnitude displayed is 2.5.

Coastal Water Temperatures

Place Temperature

Stations

Nearby Weather Stations

Station Location Temp. Windchill Dew Point Humidity Wind Precip. Elev Updated Type